Time;durP1;ratioP1;P1;durP2;ratioP2;P2;SDS_P1;SDS_P2;PMS_P1;PMS_P2;Temp;Humidity;BMP_temperature;BMP_pressure;BME280_temperature;BME280_humidity;BME280_pressure;Samples;Min_cycle;Max_cycle;Signal;HPM_P1;HPM_P2
2024/02/20 00:01:20;;;;;;;;;;;;;;;9.15;61.22;100336.50;4974889;28;19997;-87
2024/02/20 00:03:46;;;;;;;;;;;;;;;9.12;61.55;100341.22;4975151;28;19997;-86
2024/02/20 00:06:11;;;;;;;;;;;;;;;9.10;61.33;100335.28;4957889;28;20010;-86
2024/02/20 00:08:36;;;;;;;;;;;;;;;9.10;61.24;100332.66;4957521;28;20417;-87
2024/02/20 00:11:03;;;;;;;;;;;;;;;9.10;62.00;100333.47;4975008;28;20374;-87
2024/02/20 00:13:28;;;;;;;;;;;;;;;9.08;62.40;100329.34;4974877;28;20327;-87
2024/02/20 00:15:53;;;;;;;;;;;;;;;9.06;61.78;100318.94;4974772;28;19918;-87
2024/02/20 00:18:20;;;;;;;;;;;;;;;9.06;62.34;100320.75;4957458;28;19914;-87
2024/02/20 00:20:45;;;;;;;;;;;;;;;9.05;62.50;100322.56;4974633;28;19920;-87
2024/02/20 00:23:13;;;;;;;;;;;;;;;9.03;62.54;100327.16;4974789;28;19918;-87
2024/02/20 00:25:39;;;;;;;;;;;;;;;9.04;62.35;100322.72;4957175;28;19965;-87
2024/02/20 00:28:04;;;;;;;;;;;;;;;9.03;63.31;100328.97;4974590;28;19918;-87
2024/02/20 00:30:29;;;;;;;;;;;;;;;9.03;62.15;100324.53;4956185;28;19918;-87
2024/02/20 00:32:55;;;;;;;;;;;;;;;9.01;62.71;100315.94;4957276;28;19922;-87
2024/02/20 00:35:20;;;;;;;;;;;;;;;9.00;63.16;100324.00;4957120;28;19938;-87
2024/02/20 00:37:45;;;;;;;;;;;;;;;9.00;62.67;100324.00;4974378;28;19937;-86
2024/02/20 00:40:11;;;;;;;;;;;;;;;9.01;62.31;100305.41;4974329;28;19914;-87
2024/02/20 00:42:36;;;;;;;;;;;;;;;9.01;62.73;100312.47;4956807;28;20397;-87
2024/02/20 00:45:03;;;;;;;;;;;;;;;9.00;63.29;100308.19;4974158;28;20026;-87
2024/02/20 00:47:29;;;;;;;;;;;;;;;9.00;62.82;100311.66;4956905;28;19914;-87
2024/02/20 00:49:54;;;;;;;;;;;;;;;9.01;62.01;100309.84;4974157;28;19925;-87
2024/02/20 00:52:20;;;;;;;;;;;;;;;8.98;62.79;100313.59;4956788;28;19917;-86
2024/02/20 00:54:45;;;;;;;;;;;;;;;8.99;62.88;100312.63;4957009;28;19918;-86
2024/02/20 00:57:11;;;;;;;;;;;;;;;8.99;63.21;100309.16;4956617;28;19921;-87
2024/02/20 00:59:36;;;;;;;;;;;;;;;8.96;63.29;100312.91;4973933;28;20418;-87
2024/02/20 01:02:02;;;;;;;;;;;;;;;8.94;63.22;100306.16;4973729;28;19926;-87
2024/02/20 01:04:27;;;;;;;;;;;;;;;8.97;62.98;100300.59;4956621;28;19915;-87
2024/02/20 01:06:53;;;;;;;;;;;;;;;9.00;62.67;100306.38;4956713;28;20372;-87
2024/02/20 01:09:19;;;;;;;;;;;;;;;8.96;63.39;100298.94;4973858;28;20332;-87
2024/02/20 01:11:44;;;;;;;;;;;;;;;8.92;63.45;100303.66;4956432;28;19957;-87
2024/02/20 01:14:09;;;;;;;;;;;;;;;8.93;63.44;100299.22;4956395;28;19984;-87
2024/02/20 01:16:35;;;;;;;;;;;;;;;8.96;62.73;100298.94;4956507;28;19914;-87
2024/02/20 01:19:00;;;;;;;;;;;;;;;8.95;62.84;100294.63;4974148;28;19913;-87
2024/02/20 01:21:25;;;;;;;;;;;;;;;8.92;63.25;100293.13;4962374;28;19929;-86
2024/02/20 01:23:51;;;;;;;;;;;;;;;8.89;63.27;100286.31;4962491;28;19968;-87
2024/02/20 01:26:16;;;;;;;;;;;;;;;8.90;63.33;100290.63;4973546;28;19914;-87
2024/02/20 01:28:41;;;;;;;;;;;;;;;8.91;63.02;100288.81;4956010;28;20438;-87
2024/02/20 01:31:08;;;;;;;;;;;;;;;8.89;63.43;100293.41;4956202;28;20027;-87
2024/02/20 01:33:33;;;;;;;;;;;;;;;8.87;63.39;100285.66;4955971;28;19914;-87
2024/02/20 01:35:59;;;;;;;;;;;;;;;8.86;63.04;100276.09;4973215;28;20299;-87
2024/02/20 01:38:25;;;;;;;;;;;;;;;8.89;62.39;100277.59;4973068;28;19921;-87
2024/02/20 01:40:50;;;;;;;;;;;;;;;8.84;63.31;100275.41;4955697;28;19914;-87
2024/02/20 01:43:15;;;;;;;;;;;;;;;8.87;63.24;100283.00;4973022;28;19914;-87
2024/02/20 01:45:41;;;;;;;;;;;;;;;8.87;62.21;100280.38;4973270;28;19914;-87
2024/02/20 01:48:06;;;;;;;;;;;;;;;8.82;63.25;100279.16;4955877;28;19937;-87
2024/02/20 01:50:35;;;;;;;;;;;;;;;8.83;62.74;100278.19;4973295;28;19941;-87
2024/02/20 01:53:02;;;;;;;;;;;;;;;8.82;62.46;100271.25;4973410;28;20310;-87
2024/02/20 01:55:27;;;;;;;;;;;;;;;8.87;61.86;100279.53;4955745;28;19993;-86
2024/02/20 01:57:52;;;;;;;;;;;;;;;8.82;62.33;100271.25;4973109;28;19945;-87
2024/02/20 02:00:18;;;;;;;;;;;;;;;8.76;62.88;100272.69;4973165;28;19914;-87
2024/02/20 02:02:44;;;;;;;;;;;;;;;8.74;63.69;100269.38;4972815;28;19926;-87
2024/02/20 02:05:09;;;;;;;;;;;;;;;8.73;63.48;100267.72;4972980;28;20447;-87
2024/02/20 02:07:34;;;;;;;;;;;;;;;8.73;63.26;100275.63;4972839;28;19921;-87
2024/02/20 02:10:00;;;;;;;;;;;;;;;8.73;63.31;100274.78;4972847;28;19972;-87
2024/02/20 02:12:27;;;;;;;;;;;;;;;8.07;63.36;100160.03;4955616;28;19914;-87
2024/02/20 02:14:52;;;;;;;;;;;;;;;8.73;63.05;100275.63;4955466;28;20289;-87
2024/02/20 02:17:17;;;;;;;;;;;;;;;8.72;63.74;100279.22;4972825;28;19921;-87
2024/02/20 02:19:43;;;;;;;;;;;;;;;8.68;63.78;100267.34;4973071;28;19914;-87
2024/02/20 02:22:08;;;;;;;;;;;;;;;8.68;62.21;100259.44;4972555;28;20419;-87
2024/02/20 02:24:34;;;;;;;;;;;;;;;8.69;62.40;100271.63;4972723;28;20297;-87
2024/02/20 02:27:08;;;;;;;;;;;;;;;8.67;62.03;100263.06;4972834;28;19956;-88
2024/02/20 02:29:33;;;;;;;;;;;;;;;8.63;62.87;100274.03;4955612;28;19922;-87
2024/02/20 02:31:59;;;;;;;;;;;;;;;8.66;62.04;100271.09;4955468;28;19914;-87
2024/02/20 02:34:27;;;;;;;;;;;;;;;8.62;61.49;100264.47;4973017;28;19918;-87
2024/02/20 02:36:53;;;;;;;;;;;;;;;8.53;62.24;100268.81;4955351;28;19941;-87
2024/02/20 02:39:20;;;;;;;;;;;;;;;8.44;62.69;100273.16;4955427;28;20490;-88
2024/02/20 02:41:45;;;;;;;;;;;;;;;8.44;62.42;100274.97;4972748;28;20375;-87
2024/02/20 02:44:11;;;;;;;;;;;;;;;8.42;63.04;100261.94;4972847;28;19921;-87
2024/02/20 02:46:36;;;;;;;;;;;;;;;8.42;62.10;100266.38;4955515;28;19921;-88
2024/02/20 02:49:01;;;;;;;;;;;;;;;8.39;62.14;100267.50;4955383;28;19921;-88
2024/02/20 02:51:26;;;;;;;;;;;;;;;8.37;62.82;100271.25;4972853;28;19914;-88
2024/02/20 02:53:52;;;;;;;;;;;;;;;8.39;62.51;100271.94;4973214;28;19925;-88
2024/02/20 02:56:17;;;;;;;;;;;;;;;8.38;62.76;100265.84;4976281;28;20303;-88
2024/02/20 02:58:42;;;;;;;;;;;;;;;8.35;62.72;100267.94;4976462;28;19914;-88
2024/02/20 03:01:09;;;;;;;;;;;;;;;8.36;63.23;100275.69;4976136;28;19922;-88
2024/02/20 03:03:34;;;;;;;;;;;;;;;8.36;63.43;100278.31;4976472;28;19972;-87
2024/02/20 03:06:06;;;;;;;;;;;;;;;8.36;62.95;100278.31;4976427;28;19914;-87
2024/02/20 03:08:32;;;;;;;;;;;;;;;8.37;63.06;100271.25;4958839;28;19965;-87
2024/02/20 03:10:58;;;;;;;;;;;;;;;8.36;63.09;100277.50;4958815;28;19915;-87
2024/02/20 03:13:24;;;;;;;;;;;;;;;8.36;63.43;100270.44;4958630;28;20225;-88
2024/02/20 03:15:49;;;;;;;;;;;;;;;8.36;63.20;100278.31;4976194;28;19921;-88
2024/02/20 03:18:15;;;;;;;;;;;;;;;8.36;63.08;100272.22;4976053;28;19922;-88
2024/02/20 03:20:42;;;;;;;;;;;;;;;8.40;62.63;100271.78;4976121;28;20005;-88
2024/02/20 03:23:07;;;;;;;;;;;;;;;8.37;63.28;100279.16;4958460;28;20342;-87
2024/02/20 03:25:32;;;;;;;;;;;;;;;8.37;63.25;100284.41;4975928;28;19914;-88
2024/02/20 03:27:58;;;;;;;;;;;;;;;8.39;63.09;100282.47;4975727;28;19914;-87
2024/02/20 03:30:23;;;;;;;;;;;;;;;8.37;63.17;100285.25;4975824;28;19921;-87
2024/02/20 03:32:50;;;;;;;;;;;;;;;8.39;62.84;100287.72;4958587;28;19918;-88
2024/02/20 03:35:21;;;;;;;;;;;;;;;8.42;62.44;100298.78;4975882;28;19914;-87
2024/02/20 03:37:48;;;;;;;;;;;;;;;8.42;62.56;100290.06;4958173;28;19914;-87
2024/02/20 03:40:13;;;;;;;;;;;;;;;8.43;62.58;100297.00;4958424;28;19914;-87
2024/02/20 03:42:39;;;;;;;;;;;;;;;8.46;62.17;100294.06;4958275;28;19997;-87
2024/02/20 03:45:05;;;;;;;;;;;;;;;8.45;62.31;100287.97;4975657;28;19960;-88
2024/02/20 03:47:31;;;;;;;;;;;;;;;8.42;62.51;100292.69;4958277;28;19914;-87
2024/02/20 03:49:56;;;;;;;;;;;;;;;8.42;62.64;100290.06;4975525;28;19910;-88
2024/02/20 03:52:21;;;;;;;;;;;;;;;8.40;62.95;100294.66;4975525;28;19914;-88
2024/02/20 03:54:47;;;;;;;;;;;;;;;8.39;62.55;100293.81;4975528;28;20391;-88
2024/02/20 03:57:12;;;;;;;;;;;;;;;8.40;62.30;100289.38;4975060;28;19993;-87
2024/02/20 03:59:37;;;;;;;;;;;;;;;8.40;62.35;100302.53;4975240;28;20312;-88
2024/02/20 04:02:03;;;;;;;;;;;;;;;8.41;62.04;100298.94;4974941;28;19922;-88
2024/02/20 04:04:29;;;;;;;;;;;;;;;8.40;62.44;100294.66;4975178;28;19988;-88
2024/02/20 04:06:54;;;;;;;;;;;;;;;8.38;62.62;100284.28;4974963;28;19914;-88
2024/02/20 04:09:19;;;;;;;;;;;;;;;8.41;62.45;100289.25;4975338;28;19941;-88
2024/02/20 04:11:45;;;;;;;;;;;;;;;8.43;62.48;100291.72;4957766;28;19918;-87
2024/02/20 04:14:11;;;;;;;;;;;;;;;8.41;62.21;100293.66;4974995;28;20044;-87
2024/02/20 04:16:36;;;;;;;;;;;;;;;8.40;62.54;100286.75;4957409;28;19924;-87
2024/02/20 04:19:01;;;;;;;;;;;;;;;8.40;62.46;100290.22;4957431;28;20008;-88
2024/02/20 04:21:26;;;;;;;;;;;;;;;8.40;62.38;100292.00;4974798;28;20013;-88
2024/02/20 04:23:52;;;;;;;;;;;;;;;8.40;62.33;100290.22;4974830;28;19918;-88
2024/02/20 04:26:17;;;;;;;;;;;;;;;8.40;62.80;100292.00;4957417;28;20466;-87
2024/02/20 04:28:42;;;;;;;;;;;;;;;8.42;62.56;100284.81;4974619;28;19918;-88
2024/02/20 04:31:07;;;;;;;;;;;;;;;8.44;61.75;100296.00;4975853;28;19916;-88
2024/02/20 04:33:33;;;;;;;;;;;;;;;8.40;62.44;100287.59;4984675;28;19914;-87
2024/02/20 04:35:58;;;;;;;;;;;;;;;8.38;62.29;100284.28;4978332;28;19914;-87
2024/02/20 04:38:23;;;;;;;;;;;;;;;8.39;61.94;100290.34;4957241;28;20386;-88
2024/02/20 04:40:49;;;;;;;;;;;;;;;8.41;62.13;100288.41;4974676;28;19921;-88
2024/02/20 04:43:14;;;;;;;;;;;;;;;8.41;61.58;100283.97;4957135;28;20425;-87
2024/02/20 04:45:40;;;;;;;;;;;;;;;8.40;61.29;100284.13;4957272;28;19914;-88
2024/02/20 04:48:05;;;;;;;;;;;;;;;8.33;61.84;100285.66;4974324;28;20004;-87
2024/02/20 04:50:30;;;;;;;;;;;;;;;8.34;61.97;100295.22;4974392;28;20335;-87
2024/02/20 04:52:55;;;;;;;;;;;;;;;8.36;61.46;100282.75;4974288;28;19914;-88
2024/02/20 04:55:21;;;;;;;;;;;;;;;8.28;62.22;100284.28;4974582;28;20418;-87
2024/02/20 04:57:46;;;;;;;;;;;;;;;8.28;61.80;100288.72;4974288;28;19921;-88
2024/02/20 05:00:12;;;;;;;;;;;;;;;8.26;62.47;100288.84;4974274;28;19922;-88
2024/02/20 05:02:37;;;;;;;;;;;;;;;8.27;62.37;100285.25;4974334;28;19922;-88
2024/02/20 05:05:03;;;;;;;;;;;;;;;8.26;62.04;100288.03;4974250;28;20487;-87
2024/02/20 05:07:28;;;;;;;;;;;;;;;8.29;62.18;100285.09;4974074;28;19914;-87
2024/02/20 05:09:53;;;;;;;;;;;;;;;8.30;62.36;100299.91;4974104;28;20364;-88
2024/02/20 05:12:19;;;;;;;;;;;;;;;8.26;62.80;100302.00;4956704;28;20280;-88
2024/02/20 05:14:48;;;;;;;;;;;;;;;8.24;62.80;100306.59;4956834;28;19938;-88
2024/02/20 05:17:13;;;;;;;;;;;;;;;8.23;62.69;100299.66;4973724;28;19988;-88
2024/02/20 05:19:39;;;;;;;;;;;;;;;8.24;62.71;100303.13;4974113;28;20388;-88
2024/02/20 05:22:04;;;;;;;;;;;;;;;8.27;62.23;100303.66;4956595;28;19931;-88
2024/02/20 05:24:29;;;;;;;;;;;;;;;8.29;62.17;100309.63;4956505;28;19921;-87
2024/02/20 05:26:54;;;;;;;;;;;;;;;8.33;62.13;100318.06;4973483;28;19972;-88
2024/02/20 05:29:21;;;;;;;;;;;;;;;8.32;62.25;100316.38;4973538;28;19921;-88
2024/02/20 05:31:46;;;;;;;;;;;;;;;8.33;62.08;100310.19;4956146;28;19914;-87
2024/02/20 05:34:12;;;;;;;;;;;;;;;8.33;62.18;100317.22;4973393;28;19922;-88
2024/02/20 05:36:37;;;;;;;;;;;;;;;8.34;62.20;100319.75;4955876;28;20004;-88
2024/02/20 05:39:02;;;;;;;;;;;;;;;8.33;62.02;100331.22;4973261;28;19921;-87
2024/02/20 05:41:31;;;;;;;;;;;;;;;8.33;62.34;100318.06;4955980;28;20443;-87
2024/02/20 05:44:00;;;;;;;;;;;;;;;8.31;62.15;100327.06;4956005;28;20008;-87
2024/02/20 05:46:29;;;;;;;;;;;;;;;8.33;62.29;100335.63;4955894;28;20071;-87
2024/02/20 05:48:54;;;;;;;;;;;;;;;8.34;61.97;100332.06;4973131;28;20147;-88
2024/02/20 05:51:20;;;;;;;;;;;;;;;8.33;62.27;100336.50;4973290;28;19914;-87
2024/02/20 05:53:45;;;;;;;;;;;;;;;8.32;62.09;100332.19;4955682;28;20341;-87
2024/02/20 05:56:10;;;;;;;;;;;;;;;8.32;61.82;100332.19;4955465;28;19914;-87
2024/02/20 05:58:36;;;;;;;;;;;;;;;8.34;61.47;100335.53;4942775;28;19915;-87
2024/02/20 06:01:01;;;;;;;;;;;;;;;8.23;61.13;100339.13;4971130;28;19922;-87
2024/02/20 06:03:27;;;;;;;;;;;;;;;8.10;61.49;100341.22;4956183;28;20010;-88
2024/02/20 06:05:52;;;;;;;;;;;;;;;8.05;61.47;100347.88;4973061;28;19914;-88
2024/02/20 06:08:17;;;;;;;;;;;;;;;8.02;62.20;100335.84;4955739;28;19914;-87
2024/02/20 06:10:43;;;;;;;;;;;;;;;8.01;61.62;100346.50;4963388;28;19953;-88
2024/02/20 06:13:08;;;;;;;;;;;;;;;7.95;62.20;100345.25;4984613;28;19972;-87
2024/02/20 06:15:33;;;;;;;;;;;;;;;7.92;62.02;100343.75;4957215;28;19925;-87
2024/02/20 06:17:59;;;;;;;;;;;;;;;7.92;61.77;100350.81;4973180;28;19915;-88
2024/02/20 06:20:24;;;;;;;;;;;;;;;7.89;61.79;100348.47;4953238;28;19918;-87
2024/02/20 06:22:50;;;;;;;;;;;;;;;7.90;62.07;100352.75;4967995;28;20384;-88
2024/02/20 06:25:15;;;;;;;;;;;;;;;7.84;62.05;100361.19;4936236;29;19919;-88
2024/02/20 06:27:44;;;;;;;;;;;;;;;7.80;62.42;100358.03;4936146;28;19922;-86
2024/02/20 06:30:12;;;;;;;;;;;;;;;7.81;61.97;100366.75;4938664;29;19922;-88
2024/02/20 06:32:37;;;;;;;;;;;;;;;7.82;62.49;100363.97;4945430;28;19984;-87
2024/02/20 06:35:03;;;;;;;;;;;;;;;7.83;62.46;100362.16;4976527;28;19953;-87
2024/02/20 06:37:28;;;;;;;;;;;;;;;7.89;61.48;100365.06;4968190;28;20323;-88
2024/02/20 06:39:53;;;;;;;;;;;;;;;7.89;61.53;100369.50;4957591;28;20005;-87
2024/02/20 06:42:20;;;;;;;;;;;;;;;7.90;62.06;100365.91;4957504;28;19914;-88
2024/02/20 06:44:45;;;;;;;;;;;;;;;7.92;61.94;100374.47;4966265;28;19922;-87
2024/02/20 06:47:12;;;;;;;;;;;;;;;7.94;62.46;100370.72;4959220;28;19921;-88
2024/02/20 06:49:38;;;;;;;;;;;;;;;7.97;61.80;100377.50;4955059;28;19918;-87
2024/02/20 06:52:03;;;;;;;;;;;;;;;7.98;61.62;100376.53;4954962;28;19977;-87
2024/02/20 06:54:28;;;;;;;;;;;;;;;7.98;61.53;100374.75;4970522;28;20005;-87
2024/02/20 06:56:53;;;;;;;;;;;;;;;7.98;61.92;100384.44;4974569;28;19953;-87
2024/02/20 06:59:19;;;;;;;;;;;;;;;7.93;61.75;100376.97;4967881;28;20319;-87
2024/02/20 07:01:44;;;;;;;;;;;;;;;7.98;61.50;100384.44;4939391;29;19930;-87
2024/02/20 07:04:13;;;;;;;;;;;;;;;7.98;60.95;100385.25;4968006;28;19920;-87
2024/02/20 07:06:39;;;;;;;;;;;;;;;7.96;61.12;100389.81;4958591;28;19914;-87
2024/02/20 07:09:04;;;;;;;;;;;;;;;7.91;61.76;100383.34;4958417;28;19984;-87
2024/02/20 07:11:29;;;;;;;;;;;;;;;7.90;62.32;100377.25;4975802;28;19978;-87
2024/02/20 07:13:55;;;;;;;;;;;;;;;7.91;62.34;100378.06;4958642;28;19906;-88
2024/02/20 07:16:20;;;;;;;;;;;;;;;7.96;62.16;100374.06;4964706;28;20402;-88
2024/02/20 07:18:45;;;;;;;;;;;;;;;7.96;61.92;100374.06;4974547;28;19921;-88
2024/02/20 07:21:11;;;;;;;;;;;;;;;7.92;61.66;100375.31;4970677;28;20005;-86
2024/02/20 07:23:36;;;;;;;;;;;;;;;7.96;62.01;100374.06;4956355;28;20376;-87
2024/02/20 07:26:01;;;;;;;;;;;;;;;8.01;61.96;100378.06;4978397;28;19914;-87
2024/02/20 07:28:26;;;;;;;;;;;;;;;8.05;61.11;100385.53;4958488;28;19978;-88
2024/02/20 07:30:52;;;;;;;;;;;;;;;7.98;62.13;100381.78;4960695;28;20005;-88
2024/02/20 07:33:17;;;;;;;;;;;;;;;7.99;61.71;100383.47;4958319;28;19927;-88
2024/02/20 07:35:42;;;;;;;;;;;;;;;8.01;61.87;100384.16;4943912;28;19942;-88
2024/02/20 07:38:07;;;;;;;;;;;;;;;8.04;61.53;100383.88;4956443;28;19914;-87
2024/02/20 07:40:33;;;;;;;;;;;;;;;8.09;62.08;100380.81;4962525;28;19925;-87
2024/02/20 07:43:00;;;;;;;;;;;;;;;8.14;61.97;100373.31;4970285;28;19922;-87
2024/02/20 07:45:26;;;;;;;;;;;;;;;8.18;61.99;100380.00;4941271;28;19918;-87
2024/02/20 07:47:51;;;;;;;;;;;;;;;8.23;61.02;100377.75;4940435;28;19925;-88
2024/02/20 07:50:17;;;;;;;;;;;;;;;8.19;61.69;100379.84;4967146;28;19937;-87
2024/02/20 07:52:45;;;;;;;;;;;;;;;8.25;61.59;100373.19;4956625;28;19918;-87
2024/02/20 07:55:10;;;;;;;;;;;;;;;8.25;61.76;100375.81;4956957;28;19918;-87
2024/02/20 07:57:35;;;;;;;;;;;;;;;8.25;61.24;100384.53;4970092;28;20049;-88
2024/02/20 08:00:02;;;;;;;;;;;;;;;8.26;61.46;100380.94;4943934;28;20010;-86
2024/02/20 08:02:27;;;;;;;;;;;;;;;8.31;61.25;100372.63;4958442;28;19928;-86
2024/02/20 08:04:52;;;;;;;;;;;;;;;8.36;61.56;100375.69;4964480;28;20004;-87
2024/02/20 08:07:18;;;;;;;;;;;;;;;8.33;61.55;100383.84;4957779;28;19921;-88
2024/02/20 08:09:43;;;;;;;;;;;;;;;8.33;61.17;100375.09;4956168;28;20363;-87
2024/02/20 08:12:08;;;;;;;;;;;;;;;8.37;61.12;100384.41;4974846;28;20012;-87
2024/02/20 08:14:34;;;;;;;;;;;;;;;8.38;61.42;100386.88;4972334;28;19929;-88
2024/02/20 08:16:59;;;;;;;;;;;;;;;8.45;61.15;100382.72;4958047;28;19964;-87
2024/02/20 08:19:25;;;;;;;;;;;;;;;8.49;60.86;100378.81;4947279;28;19925;-87
2024/02/20 08:21:50;;;;;;;;;;;;;;;8.55;61.16;100391.41;4938162;29;19918;-87
2024/02/20 08:24:15;;;;;;;;;;;;;;;8.62;60.89;100380.28;4959178;28;19936;-86
2024/02/20 08:26:41;;;;;;;;;;;;;;;8.67;61.04;100388.59;4965695;28;19918;-87
2024/02/20 08:29:08;;;;;;;;;;;;;;;8.71;60.83;100380.25;4954846;28;19984;-87
2024/02/20 08:31:33;;;;;;;;;;;;;;;8.76;60.77;100380.63;4957405;28;19918;-87
2024/02/20 08:33:58;;;;;;;;;;;;;;;8.79;60.84;100385.63;4972685;28;20320;-86
2024/02/20 08:36:24;;;;;;;;;;;;;;;8.83;60.54;100386.16;4973964;28;20332;-87
2024/02/20 08:38:49;;;;;;;;;;;;;;;8.87;60.46;100379.63;4970857;28;19918;-87
2024/02/20 08:41:14;;;;;;;;;;;;;;;8.83;60.51;100386.97;4972489;28;19926;-86
2024/02/20 08:43:40;;;;;;;;;;;;;;;8.83;60.04;100379.09;4960079;28;20318;-87
2024/02/20 08:46:06;;;;;;;;;;;;;;;8.84;60.33;100404.44;4937633;29;19918;-87
2024/02/20 08:48:32;;;;;;;;;;;;;;;8.84;60.54;100379.91;4937682;29;19918;-87
2024/02/20 08:50:57;;;;;;;;;;;;;;;8.87;60.09;100385.72;4954673;28;19918;-86
2024/02/20 08:53:22;;;;;;;;;;;;;;;8.89;60.04;100382.94;4948674;28;19914;-87
2024/02/20 08:55:47;;;;;;;;;;;;;;;8.93;59.91;100394.03;4954781;28;19915;-87
2024/02/20 08:58:14;;;;;;;;;;;;;;;8.94;59.94;100382.53;4942951;28;20300;-88
2024/02/20 09:00:39;;;;;;;;;;;;;;;8.96;59.87;100391.94;4943685;28;19915;-86
2024/02/20 09:03:04;;;;;;;;;;;;;;;8.99;59.74;100385.53;4963872;28;20323;-87
2024/02/20 09:05:30;;;;;;;;;;;;;;;8.96;59.90;100391.94;4956203;28;19918;-87
2024/02/20 09:07:56;;;;;;;;;;;;;;;8.95;60.01;100386.81;4946821;28;19918;-88
2024/02/20 09:10:21;;;;;;;;;;;;;;;8.97;60.04;100392.75;4941290;28;20016;-87
2024/02/20 09:12:47;;;;;;;;;;;;;;;8.95;60.12;100400.81;4954906;28;19949;-87
2024/02/20 09:15:12;;;;;;;;;;;;;;;9.00;59.90;100392.47;4969277;28;19918;-87
2024/02/20 09:17:38;;;;;;;;;;;;;;;8.99;59.76;100396.91;4960356;28;20446;-87
2024/02/20 09:20:04;;;;;;;;;;;;;;;9.01;59.98;100396.75;4954754;28;20359;-86
2024/02/20 09:22:29;;;;;;;;;;;;;;;9.04;59.62;100393.84;4939077;28;19991;-86
2024/02/20 09:24:55;;;;;;;;;;;;;;;9.08;59.66;100388.13;4965993;28;20030;-87
2024/02/20 09:27:21;;;;;;;;;;;;;;;9.13;59.82;100393.78;4972677;28;19981;-86
2024/02/20 09:29:46;;;;;;;;;;;;;;;9.21;59.82;100382.50;4957826;28;19922;-87
2024/02/20 09:32:11;;;;;;;;;;;;;;;9.30;59.67;100386.03;4965907;28;19918;-86
2024/02/20 09:34:36;;;;;;;;;;;;;;;9.33;59.39;100383.94;4966378;28;20319;-87
2024/02/20 09:37:02;;;;;;;;;;;;;;;9.38;59.37;100386.13;4970188;28;19918;-88
2024/02/20 09:39:27;;;;;;;;;;;;;;;9.43;59.22;100375.97;4963015;28;20414;-87
2024/02/20 09:41:53;;;;;;;;;;;;;;;9.45;59.29;100384.53;4956161;28;20013;-87
2024/02/20 09:44:22;;;;;;;;;;;;;;;9.44;59.02;100382.88;4954672;28;19914;-87
2024/02/20 09:46:51;;;;;;;;;;;;;;;9.44;59.38;100388.16;4954674;28;19921;-87
2024/02/20 09:49:18;;;;;;;;;;;;;;;9.50;58.94;100384.91;4937373;29;19922;-87
2024/02/20 09:51:43;;;;;;;;;;;;;;;9.58;59.21;100379.72;4937237;28;19922;-87
2024/02/20 09:54:09;;;;;;;;;;;;;;;9.61;58.98;100382.06;4953154;28;20328;-87
2024/02/20 09:56:37;;;;;;;;;;;;;;;9.64;58.99;100373.03;4954699;28;19953;-86
2024/02/20 09:59:02;;;;;;;;;;;;;;;9.68;58.83;100369.97;4950934;28;20352;-87
2024/02/20 10:01:28;;;;;;;;;;;;;;;9.72;58.82;100376.59;4944285;28;19977;-87
2024/02/20 10:03:56;;;;;;;;;;;;;;;9.75;59.11;100378.09;4958512;28;19925;-87
2024/02/20 10:06:23;;;;;;;;;;;;;;;9.77;58.78;100366.41;4953456;28;20396;-86
2024/02/20 10:08:50;;;;;;;;;;;;;;;9.79;58.43;100374.16;4953703;28;19914;-87
2024/02/20 10:11:16;;;;;;;;;;;;;;;9.75;58.67;100371.00;4942172;28;19922;-86
2024/02/20 10:13:41;;;;;;;;;;;;;;;9.73;58.75;100358.94;4971169;28;20466;-87
2024/02/20 10:16:07;;;;;;;;;;;;;;;9.69;58.93;100360.25;4972834;28;19974;-87
2024/02/20 10:18:33;;;;;;;;;;;;;;;9.71;58.80;100358.28;4953516;28;19925;-87
2024/02/20 10:21:02;;;;;;;;;;;;;;;9.72;58.86;100354.66;4950041;28;20311;-86
2024/02/20 10:23:27;;;;;;;;;;;;;;;9.76;58.88;100348.09;4953664;28;19919;-87
2024/02/20 10:25:57;;;;;;;;;;;;;;;9.83;59.11;100359.69;4953736;29;19921;-87
2024/02/20 10:28:22;;;;;;;;;;;;;;;9.84;58.64;100354.25;4955507;28;19940;-87
2024/02/20 10:30:48;;;;;;;;;;;;;;;9.94;58.94;100355.97;4958882;28;20384;-87
2024/02/20 10:33:14;;;;;;;;;;;;;;;10.02;58.58;100348.94;4941146;29;19919;-87
2024/02/20 10:35:41;;;;;;;;;;;;;;;10.06;58.36;100349.47;4966621;28;19926;-87
2024/02/20 10:38:07;;;;;;;;;;;;;;;10.08;58.66;100344.88;4972992;28;19921;-87
2024/02/20 10:40:32;;;;;;;;;;;;;;;10.06;58.56;100339.75;4953408;28;19918;-86
2024/02/20 10:42:58;;;;;;;;;;;;;;;10.08;58.49;100340.41;4948882;28;20400;-87
2024/02/20 10:45:24;;;;;;;;;;;;;;;10.14;57.70;100331.03;4953312;28;19915;-86
2024/02/20 10:47:52;;;;;;;;;;;;;;;10.18;58.61;100338.50;4972457;28;19914;-87
2024/02/20 10:50:17;;;;;;;;;;;;;;;10.20;58.59;100333.09;4966281;28;20388;-87
2024/02/20 10:52:44;;;;;;;;;;;;;;;10.27;58.32;100328.00;4953485;28;19915;-86
2024/02/20 10:55:12;;;;;;;;;;;;;;;10.28;57.90;100327.03;4937935;28;19925;-86
2024/02/20 10:57:41;;;;;;;;;;;;;;;10.30;58.00;100320.63;4936855;28;19922;-86
2024/02/20 11:00:09;;;;;;;;;;;;;;;10.33;58.33;100317.66;4958916;28;20005;-86
2024/02/20 11:02:36;;;;;;;;;;;;;;;10.32;58.26;100320.47;4954386;28;20335;-86
2024/02/20 11:05:02;;;;;;;;;;;;;;;10.35;57.64;100325.41;4971839;28;19925;-85
2024/02/20 11:07:27;;;;;;;;;;;;;;;10.30;58.10;100312.69;4970012;28;20319;-87
2024/02/20 11:10:06;;;;;;;;;;;;;;;10.28;58.22;100313.84;4954725;28;20033;-87
2024/02/20 11:12:32;;;;;;;;;;;;;;;10.24;58.32;100313.31;4959002;28;19969;-86
2024/02/20 11:15:11;;;;;;;;;;;;;;;10.18;58.58;100309.47;4954064;28;20005;-86
2024/02/20 11:17:37;;;;;;;;;;;;;;;10.08;59.28;100306.09;4957001;28;19922;-87
2024/02/20 11:20:09;;;;;;;;;;;;;;;10.02;58.64;100304.09;4938936;28;20303;-87
2024/02/20 11:22:35;;;;;;;;;;;;;;;9.95;59.66;100297.78;4949303;28;19926;-87
2024/02/20 11:25:08;;;;;;;;;;;;;;;9.92;59.86;100300.75;4956053;28;19914;-85
2024/02/20 11:27:40;;;;;;;;;;;;;;;9.91;60.15;100296.44;4956855;28;19925;-86
2024/02/20 11:30:19;;;;;;;;;;;;;;;9.92;59.74;100300.75;4956475;28;19964;-86
2024/02/20 11:32:45;;;;;;;;;;;;;;;9.91;60.28;100293.81;4968106;28;20054;-86
2024/02/20 11:35:23;;;;;;;;;;;;;;;9.92;59.78;100300.75;4967069;28;20443;-86
2024/02/20 11:37:53;;;;;;;;;;;;;;;9.95;59.77;100294.31;4957380;28;19941;-86
2024/02/20 11:40:22;;;;;;;;;;;;;;;9.95;60.26;100292.50;4954296;28;19925;-88
2024/02/20 11:42:47;;;;;;;;;;;;;;;9.93;60.18;100297.13;4946547;28;19918;-87
2024/02/20 11:45:20;;;;;;;;;;;;;;;9.91;60.11;100293.81;4941928;28;19941;-87
2024/02/20 11:48:02;;;;;;;;;;;;;;;9.89;60.38;100295.78;4958118;28;20388;-87
2024/02/20 11:50:28;;;;;;;;;;;;;;;9.83;60.46;100291.94;4958312;28;19950;-87
2024/02/20 11:53:17;;;;;;;;;;;;;;;9.82;60.66;100292.09;4957151;28;20418;-86
2024/02/20 11:55:43;;;;;;;;;;;;;;;9.79;60.57;100292.41;4945763;28;20017;-87
2024/02/20 11:58:09;;;;;;;;;;;;;;;9.77;60.48;100289.09;4941675;28;19915;-86
2024/02/20 12:00:34;;;;;;;;;;;;;;;9.75;60.62;100286.63;4939602;28;19980;-87
2024/02/20 12:03:00;;;;;;;;;;;;;;;9.74;61.16;100281.50;4960838;28;20414;-86
2024/02/20 12:05:30;;;;;;;;;;;;;;;9.69;61.58;100279.31;4945808;28;20319;-87
2024/02/20 12:07:56;;;;;;;;;;;;;;;9.68;61.80;100282.13;4945361;28;19973;-87
2024/02/20 12:10:23;;;;;;;;;;;;;;;9.66;61.27;100279.63;4939159;28;20012;-85
2024/02/20 12:12:49;;;;;;;;;;;;;;;9.64;62.21;100268.38;4957106;28;19925;-87
2024/02/20 12:15:15;;;;;;;;;;;;;;;9.67;61.29;100268.09;4939951;28;19918;-87
2024/02/20 12:17:44;;;;;;;;;;;;;;;9.68;61.64;100268.94;4943298;28;19931;-87
2024/02/20 12:20:11;;;;;;;;;;;;;;;9.69;61.62;100260.03;4959400;28;19918;-87
2024/02/20 12:22:37;;;;;;;;;;;;;;;9.68;61.70;100266.28;4959484;28;20308;-86
2024/02/20 12:25:10;;;;;;;;;;;;;;;9.67;61.93;100260.19;4942008;28;19954;-86
2024/02/20 12:27:35;;;;;;;;;;;;;;;9.65;61.85;100263.94;4938042;28;19929;-87
2024/02/20 12:30:02;;;;;;;;;;;;;;;9.66;62.32;100255.91;4938974;28;20343;-86
2024/02/20 12:32:27;;;;;;;;;;;;;;;9.65;62.13;100256.84;4970059;28;19918;-86
2024/02/20 12:34:53;;;;;;;;;;;;;;;9.64;62.41;100252.56;4946703;28;19925;-86
2024/02/20 12:37:19;;;;;;;;;;;;;;;9.66;62.12;100255.03;4947209;28;19925;-86
2024/02/20 12:39:45;;;;;;;;;;;;;;;9.66;62.02;100253.25;4939827;28;19923;-86